Time;durP1;ratioP1;P1;durP2;ratioP2;P2;SDS_P1;SDS_P2;PMS_P1;PMS_P2;Temp;Humidity;BMP_temperature;BMP_pressure;BME280_temperature;BME280_humidity;BME280_pressure;Samples;Min_cycle;Max_cycle;Signal;HPM_P1;HPM_P2
2022/12/19 00:02:01;;;;;;;54.30;18.70;;;;;;;0.21;100.00;102907.50;4997771;28;20588;-81
2022/12/19 00:04:27;;;;;;;41.95;16.73;;;;;;;-0.08;100.00;102832.88;5001031;28;20144;-81
2022/12/19 00:06:55;;;;;;;36.50;16.63;;;;;;;-0.27;100.00;102851.09;5003946;28;20140;-81
2022/12/19 00:09:22;;;;;;;37.30;15.27;;;;;;;0.17;100.00;102908.97;5008425;28;20080;-80
2022/12/19 00:11:47;;;;;;;45.00;19.42;;;;;;;0.01;100.00;102876.59;5006967;28;20744;-79
2022/12/19 00:14:13;;;;;;;49.10;19.75;;;;;;;0.17;100.00;103017.38;5005256;28;20084;-80
2022/12/19 00:16:38;;;;;;;43.47;18.63;;;;;;;-0.96;100.00;102871.00;4998058;28;20050;-80
2022/12/19 00:19:04;;;;;;;46.15;21.35;;;;;;;-0.64;100.00;102892.72;4998752;28;20038;-79
2022/12/19 00:21:31;;;;;;;33.92;18.35;;;;;;;-0.08;100.00;102915.44;4999829;28;20482;-80
2022/12/19 00:23:57;;;;;;;39.45;18.42;;;;;;;0.05;100.00;103024.09;4998430;28;20054;-80
2022/12/19 00:26:23;;;;;;;40.65;20.88;;;;;;;0.01;100.00;103018.53;5000078;28;20108;-81
2022/12/19 00:28:52;;;;;;;45.10;22.38;;;;;;;0.33;100.00;103047.97;5004244;28;20128;-79
2022/12/19 00:31:19;;;;;;;57.80;20.75;;;;;;;0.09;100.00;102979.69;4987428;28;20160;-85
2022/12/19 00:33:46;;;;;;;47.53;21.65;;;;;;;-0.79;100.00;102894.00;4984358;28;20070;-82
2022/12/19 00:36:19;;;;;;;47.50;18.40;;;;;;;0.50;100.00;103039.06;5000553;28;20212;-83
2022/12/19 00:38:46;;;;;;;35.85;16.30;;;;;;;0.27;100.00;103031.06;5006493;28;20041;-84
2022/12/19 00:41:14;;;;;;;28.98;18.90;;;;;;;-0.68;100.00;102996.38;5002890;28;20057;-84
2022/12/19 00:43:41;;;;;;;41.15;19.88;;;;;;;-0.47;100.00;103046.31;5005516;28;20497;-83
2022/12/19 00:46:09;;;;;;;35.78;16.20;;;;;;;-0.83;100.00;102891.91;5004442;28;20136;-83
2022/12/19 00:48:35;;;;;;;44.40;18.02;;;;;;;-0.87;100.00;102918.19;5002017;28;20081;-84
2022/12/19 00:51:07;;;;;;;38.72;18.20;;;;;;;-0.17;100.00;103051.41;5004108;28;20125;-82
2022/12/19 00:53:33;;;;;;;39.30;16.42;;;;;;;-0.73;100.00;102899.66;5002359;28;20054;-81
2022/12/19 00:56:04;;;;;;;40.45;17.08;;;;;;;-0.25;100.00;103024.97;4986079;28;20054;-82
2022/12/19 00:58:29;;;;;;;44.53;19.48;;;;;;;-0.23;100.00;103059.53;5000844;28;20042;-83
2022/12/19 01:00:55;;;;;;;41.85;17.45;;;;;;;-0.03;100.00;103076.72;4996272;28;20058;-83
2022/12/19 01:03:20;;;;;;;41.65;18.35;;;;;;;-0.20;100.00;103025.38;4986381;28;20042;-84
2022/12/19 01:05:46;;;;;;;42.80;18.15;;;;;;;-0.57;100.00;102926.78;4983629;28;20034;-83
2022/12/19 01:08:11;;;;;;;43.85;17.63;;;;;;;0.08;100.00;103045.00;4969350;28;20508;-83
2022/12/19 01:10:37;;;;;;;45.65;19.88;;;;;;;-0.48;100.00;102943.03;4998025;28;20073;-84
2022/12/19 01:13:02;;;;;;;41.45;21.45;;;;;;;-0.57;100.00;102922.50;4993596;28;20047;-83
2022/12/19 01:15:28;;;;;;;56.38;22.25;;;;;;;-0.23;100.00;102985.63;4969350;28;20573;-83
2022/12/19 01:17:53;;;;;;;61.25;22.98;;;;;;;0.04;100.00;103071.31;5004833;28;20685;-83
2022/12/19 01:20:20;;;;;;;44.47;18.85;;;;;;;-0.52;100.00;102949.59;4988712;28;20133;-83
2022/12/19 01:22:46;;;;;;;38.00;17.88;;;;;;;-0.46;100.00;102947.53;4998336;28;20119;-83
2022/12/19 01:25:12;;;;;;;45.72;17.58;;;;;;;-0.10;100.00;103031.41;4986923;28;20053;-83
2022/12/19 01:27:38;;;;;;;33.58;18.17;;;;;;;-0.13;100.00;103056.06;4992575;28;20134;-82
2022/12/19 01:30:05;;;;;;;36.78;19.98;;;;;;;-0.14;100.00;103067.16;4973668;28;20490;-81
2022/12/19 01:32:33;;;;;;;44.78;21.10;;;;;;;-0.08;100.00;103053.09;4986898;28;20050;-79
2022/12/19 01:34:59;;;;;;;42.17;21.35;;;;;;;-0.11;100.00;103052.84;4985868;28;20089;-81
2022/12/19 01:37:24;;;;;;;50.53;22.35;;;;;;;-0.64;100.00;102967.47;4986717;28;20513;-81
2022/12/19 01:39:50;;;;;;;40.72;21.48;;;;;;;-0.47;100.00;103014.44;4987247;28;20046;-81
2022/12/19 01:42:19;;;;;;;44.75;19.95;;;;;;;-0.79;100.00;103074.44;5003001;28;20046;-81
2022/12/19 01:45:13;;;;;;;35.53;16.85;;;;;;;-1.20;100.00;103058.72;5002449;28;20041;-82
2022/12/19 01:48:19;;;;;;;41.70;18.10;;;;;;;-1.41;100.00;103073.13;4977661;28;20061;-81
2022/12/19 01:51:11;;;;;;;39.20;20.27;;;;;;;-0.78;100.00;103091.69;4943608;29;20065;-78
2022/12/19 01:53:41;;;;;;;37.50;18.40;;;;;;;-1.95;100.00;102944.69;4994684;28;20076;-77
2022/12/19 01:56:09;;;;;;;47.03;17.83;;;;;;;-1.44;100.00;103080.59;5001208;28;20651;-82
2022/12/19 01:58:38;;;;;;;35.22;19.85;;;;;;;-1.33;100.00;103012.06;4982242;28;20077;-78
2022/12/19 02:01:05;;;;;;;56.38;18.15;;;;;;;-1.13;100.00;103006.97;4997605;28;20139;-80
2022/12/19 02:03:33;;;;;;;40.78;18.65;;;;;;;-0.77;100.00;103061.66;4993121;28;20160;-82
2022/12/19 02:05:59;;;;;;;38.95;18.55;;;;;;;-0.89;100.00;103038.28;5006251;28;20034;-78
2022/12/19 02:08:27;;;;;;;36.03;18.67;;;;;;;-1.31;100.00;103028.56;5004590;28;20137;-79
2022/12/19 02:10:52;;;;;;;39.25;19.48;;;;;;;-1.50;100.00;102940.97;5005163;28;20056;-79
2022/12/19 02:13:19;;;;;;;42.10;19.00;;;;;;;-1.08;100.00;103051.19;5004220;28;20053;-79
2022/12/19 02:16:06;;;;;;;48.75;19.17;;;;;;;-0.71;100.00;103095.72;5005766;28;20060;-80
2022/12/19 02:19:08;;;;;;;35.17;17.05;;;;;;;-0.65;100.00;103075.66;5005514;28;20093;-80
2022/12/19 02:21:56;;;;;;;41.45;18.13;;;;;;;-1.15;100.00;102979.28;5005275;28;20503;-79
2022/12/19 02:24:58;;;;;;;42.50;18.73;;;;;;;-1.23;100.00;102967.41;5005194;28;20041;-82
2022/12/19 02:27:26;;;;;;;34.67;17.83;;;;;;;-0.47;100.00;103108.22;5008267;28;20125;-79
2022/12/19 02:30:09;;;;;;;41.42;19.75;;;;;;;-1.40;100.00;102946.22;5006228;28;20076;-81
2022/12/19 02:32:43;;;;;;;41.42;17.10;;;;;;;-0.57;100.00;103092.69;5008348;28;20046;-80
2022/12/19 02:35:17;;;;;;;41.80;20.25;;;;;;;-1.46;100.00;102939.59;5000699;28;20057;-80
2022/12/19 02:37:57;;;;;;;49.53;19.52;;;;;;;-1.65;100.00;102886.47;5001773;28;20050;-82
2022/12/19 02:40:28;;;;;;;38.05;19.80;;;;;;;-1.44;100.00;102922.63;4998301;28;20125;-81
2022/12/19 02:42:58;;;;;;;33.60;17.40;;;;;;;-0.50;100.00;103097.63;4988523;28;20109;-79
2022/12/19 02:45:29;;;;;;;32.28;14.45;;;;;;;-1.37;100.00;102948.16;4991819;28;20069;-80
2022/12/19 02:47:58;;;;;;;37.53;17.25;;;;;;;-1.02;100.00;103032.81;5007187;28;20038;-81
2022/12/19 02:50:24;;;;;;;43.80;19.63;;;;;;;-1.43;100.00;102934.72;4985976;28;20053;-81
2022/12/19 02:52:49;;;;;;;33.88;16.92;;;;;;;-1.40;100.00;102951.34;5002811;28;20042;-86
2022/12/19 02:55:19;;;;;;;37.72;18.85;;;;;;;-0.85;100.00;103046.41;5000311;28;20042;-88
2022/12/19 02:58:04;;;;;;;39.30;20.25;;;;;;;-0.56;100.00;103088.44;4991694;28;20099;-87
2022/12/19 03:00:34;;;;;;;31.25;18.08;;;;;;;-1.56;100.00;102919.88;5002855;28;20504;-83
2022/12/19 03:03:17;;;;;;;41.08;19.92;;;;;;;-0.60;100.00;103105.31;4987114;28;20165;-83
2022/12/19 03:06:03;;;;;;;46.88;21.63;;;;;;;-1.62;100.00;102898.72;5009382;28;20054;-84
2022/12/19 03:08:51;;;;;;;43.63;19.67;;;;;;;-1.28;100.00;103076.06;5006613;28;20105;-84
2022/12/19 03:11:17;;;;;;;44.08;20.95;;;;;;;-1.69;100.00;102992.47;5004264;28;20061;-82
2022/12/19 03:13:48;;;;;;;48.72;21.48;;;;;;;-0.87;100.00;103098.59;5005114;28;20045;-85
2022/12/19 03:16:14;;;;;;;40.75;19.00;;;;;;;-1.06;100.00;103080.59;5003178;28;20054;-82
2022/12/19 03:18:39;;;;;;;32.33;17.90;;;;;;;-1.89;100.00;102938.31;5006293;28;20072;-82
2022/12/19 03:21:22;;;;;;;36.83;17.33;;;;;;;-1.62;100.00;102981.97;5005069;28;20034;-82
2022/12/19 03:23:51;;;;;;;41.78;18.83;;;;;;;-1.82;100.00;102966.41;4988556;28;20057;-81
2022/12/19 03:26:20;;;;;;;34.90;16.23;;;;;;;-1.18;100.00;103084.63;5002232;28;20070;-78
2022/12/19 03:29:08;;;;;;;41.85;21.83;;;;;;;-1.01;100.00;103129.94;5006065;28;20064;-81
2022/12/19 03:31:36;;;;;;;44.67;18.33;;;;;;;-1.87;100.00;102941.91;5004960;28;20116;-83
2022/12/19 03:34:09;;;;;;;37.10;16.60;;;;;;;-1.96;100.00;102975.44;5002937;28;20113;-79
2022/12/19 03:36:44;;;;;;;30.23;14.73;;;;;;;-1.81;100.00;102965.63;5003473;28;20756;-80
2022/12/19 03:39:13;;;;;;;39.30;18.77;;;;;;;-1.47;100.00;103051.09;5006666;28;20132;-81
2022/12/19 03:44:31;;;;;;;43.88;19.67;;;;;;;-1.66;100.00;102995.34;5008865;28;20082;-83
2022/12/19 03:47:30;;;;;;;34.30;16.77;;;;;;;-1.13;100.00;103112.59;5020422;28;20131;-83
2022/12/19 03:49:55;;;;;;;39.10;17.98;;;;;;;-1.17;100.00;103110.53;4976192;28;20487;-83
2022/12/19 03:52:30;;;;;;;50.22;18.60;;;;;;;-2.14;100.00;102949.81;4981776;28;20053;-81
2022/12/19 03:55:02;;;;;;;42.95;18.67;;;;;;;-1.14;100.00;103130.53;4998084;28;20076;-81
2022/12/19 03:57:36;;;;;;;38.90;15.63;;;;;;;-1.31;100.00;103121.25;4999339;28;20037;-81
2022/12/19 04:00:07;;;;;;;32.97;16.20;;;;;;;-1.33;100.00;103122.78;4987303;28;20041;-81
2022/12/19 04:02:36;;;;;;;38.42;16.67;;;;;;;-1.88;100.00;103071.34;4986533;28;20048;-83
2022/12/19 04:05:09;;;;;;;35.33;17.40;;;;;;;-1.53;100.00;103138.97;4994953;28;20501;-83
2022/12/19 04:07:36;;;;;;;37.42;17.40;;;;;;;-1.25;100.00;103146.66;4996522;28;20041;-82
2022/12/19 04:10:06;;;;;;;34.15;14.95;;;;;;;-1.54;100.00;103124.28;5005875;28;20119;-83
2022/12/19 04:12:47;;;;;;;32.35;15.02;;;;;;;-2.06;100.00;103045.72;5005942;28;20046;-81
2022/12/19 04:15:14;;;;;;;34.10;14.90;;;;;;;-1.74;100.00;103086.38;5002589;28;20036;-83
2022/12/19 04:17:45;;;;;;;40.08;16.08;;;;;;;-2.33;100.00;102974.59;5001737;28;20099;-82
2022/12/19 04:20:16;;;;;;;37.42;16.00;;;;;;;-1.56;100.00;103179.88;4995118;28;20076;-83
2022/12/19 04:23:01;;;;;;;36.22;16.55;;;;;;;-2.68;100.00;103004.69;5004733;28;20145;-82
2022/12/19 04:25:36;;;;;;;36.28;16.85;;;;;;;-1.72;100.00;103154.34;5003768;28;20045;-81
2022/12/19 04:28:11;;;;;;;37.33;16.15;;;;;;;-1.64;100.00;103178.22;4987028;28;20072;-82
2022/12/19 04:30:38;;;;;;;38.78;18.77;;;;;;;-1.50;100.00;103183.94;5000161;28;20529;-83
2022/12/19 04:33:04;;;;;;;42.78;18.92;;;;;;;-2.40;100.00;103039.06;5002346;28;20095;-83
2022/12/19 04:35:29;;;;;;;31.25;16.55;;;;;;;-1.77;100.00;103142.72;5005087;28;20050;-84
2022/12/19 04:37:55;;;;;;;41.95;17.90;;;;;;;-1.60;100.00;103200.94;5000971;28;20074;-82
2022/12/19 04:40:20;;;;;;;38.75;16.92;;;;;;;-1.85;100.00;103133.38;5001058;28;20056;-84
2022/12/19 04:42:46;;;;;;;31.80;17.88;;;;;;;-1.72;100.00;103177.53;5003896;28;20056;-81
2022/12/19 04:45:11;;;;;;;28.48;16.55;;;;;;;-1.68;100.00;103183.88;4992837;28;20045;-81
2022/12/19 04:47:37;;;;;;;33.25;17.20;;;;;;;-2.67;100.00;103029.59;5004462;28;20042;-77
2022/12/19 04:50:03;;;;;;;25.00;13.90;;;;;;;-2.60;100.00;103037.16;5005816;28;20053;-78
2022/12/19 04:52:29;;;;;;;38.90;16.58;;;;;;;-2.65;100.00;103003.28;5003486;28;20112;-78
2022/12/19 04:54:54;;;;;;;28.02;16.80;;;;;;;-2.77;100.00;103002.13;4998064;28;20070;-78
2022/12/19 04:57:20;;;;;;;41.10;20.88;;;;;;;-2.51;100.00;103030.31;4967129;28;20026;-80
2022/12/19 04:59:45;;;;;;;41.92;17.67;;;;;;;-2.61;100.00;103007.97;5003800;28;20029;-80
2022/12/19 05:02:11;;;;;;;35.58;16.40;;;;;;;-1.62;100.00;103195.63;4985779;28;20042;-79
2022/12/19 05:04:36;;;;;;;26.83;13.85;;;;;;;-2.69;100.00;103016.63;4995237;28;20042;-80
2022/12/19 05:07:02;;;;;;;34.67;16.48;;;;;;;-2.25;100.00;103176.78;4996186;28;20058;-80
2022/12/19 05:09:27;;;;;;;25.75;13.05;;;;;;;-2.77;100.00;103048.38;4983610;28;20088;-80
2022/12/19 05:11:54;;;;;;;24.48;13.77;;;;;;;-2.51;100.00;103061.16;4985341;28;20034;-80
2022/12/19 05:14:20;;;;;;;27.75;13.00;;;;;;;-1.73;100.00;103191.16;4987817;28;20042;-82
2022/12/19 05:16:45;;;;;;;26.80;11.90;;;;;;;-1.63;100.00;103216.09;4998997;28;20046;-83
2022/12/19 05:19:11;;;;;;;41.72;15.63;;;;;;;-2.47;100.00;103088.97;5005695;28;20401;-80
2022/12/19 05:21:36;;;;;;;33.78;19.40;;;;;;;-1.77;100.00;103220.84;5002673;28;20388;-81
2022/12/19 05:24:02;;;;;;;29.13;14.75;;;;;;;-2.70;100.00;103055.94;4987145;28;20030;-81
2022/12/19 05:26:27;;;;;;;31.00;14.13;;;;;;;-2.40;100.00;103183.94;4985078;28;20501;-81
2022/12/19 05:28:53;;;;;;;34.80;17.95;;;;;;;-2.80;100.00;103163.72;4977325;28;20061;-79
2022/12/19 05:31:19;;;;;;;29.98;14.55;;;;;;;-3.60;100.00;102999.25;4995178;28;20161;-82
2022/12/19 05:33:46;;;;;;;27.35;14.85;;;;;;;-2.18;100.00;103176.63;5005813;28;20050;-81
2022/12/19 05:36:13;;;;;;;34.75;14.40;;;;;;;-1.87;100.00;103227.53;5002004;28;20033;-80
2022/12/19 05:38:39;;;;;;;33.03;16.55;;;;;;;-1.92;100.00;103256.31;5005056;28;20038;-80
2022/12/19 05:41:10;;;;;;;30.27;16.90;;;;;;;-2.54;100.00;103102.00;5001743;28;20054;-79
2022/12/19 05:43:35;;;;;;;35.88;15.27;;;;;;;-1.72;100.00;103259.88;5003395;28;20053;-80
2022/12/19 05:46:03;;;;;;;27.83;16.08;;;;;;;-2.55;100.00;103087.34;5001217;28;20504;-80
2022/12/19 05:48:29;;;;;;;27.95;12.55;;;;;;;-2.65;100.00;103069.22;5005050;28;20113;-77
2022/12/19 05:50:54;;;;;;;31.58;15.90;;;;;;;-2.19;100.00;103159.38;5002864;28;20103;-80
2022/12/19 05:53:19;;;;;;;28.15;14.93;;;;;;;-2.47;100.00;103140.38;5002020;28;21406;-80
2022/12/19 05:55:45;;;;;;;28.50;13.32;;;;;;;-2.15;100.00;103178.59;4994910;28;20148;-81
2022/12/19 05:58:10;;;;;;;26.98;12.43;;;;;;;-2.64;100.00;103082.22;5001658;28;20060;-80
2022/12/19 06:00:36;;;;;;;28.63;12.18;;;;;;;-2.73;100.00;103118.97;4985777;28;20251;-82
2022/12/19 06:03:02;;;;;;;32.47;15.15;;;;;;;-2.19;100.00;103177.38;5002702;28;20042;-83
2022/12/19 06:05:28;;;;;;;40.92;20.23;;;;;;;-1.99;100.00;103261.63;4987362;28;20137;-81
2022/12/19 06:07:53;;;;;;;31.52;14.40;;;;;;;-2.73;100.00;103153.28;4996041;28;20057;-82
2022/12/19 06:10:19;;;;;;;28.02;14.00;;;;;;;-1.75;100.00;103295.63;4982197;28;20099;-81
2022/12/19 06:12:44;;;;;;;30.70;16.30;;;;;;;-2.08;100.00;103286.47;4984516;28;20050;-82
2022/12/19 06:15:10;;;;;;;25.23;16.70;;;;;;;-2.40;100.00;103249.88;4998933;28;20077;-79
2022/12/19 06:17:36;;;;;;;30.90;14.73;;;;;;;-2.27;100.00;103213.41;4987021;28;20046;-79
2022/12/19 06:20:01;;;;;;;39.75;17.65;;;;;;;-2.10;100.00;103251.06;5004287;28;20046;-81
2022/12/19 06:22:27;;;;;;;62.50;19.92;;;;;;;-1.58;100.00;103286.94;5001834;28;20062;-79
2022/12/19 06:24:52;;;;;;;35.65;18.48;;;;;;;-2.25;100.00;103169.06;5003544;28;20500;-80
2022/12/19 06:27:19;;;;;;;29.27;14.57;;;;;;;-2.36;100.00;103177.44;5003865;28;20064;-81
2022/12/19 06:29:44;;;;;;;34.70;16.10;;;;;;;-1.62;100.00;103265.13;4999120;28;20478;-81
2022/12/19 06:32:09;;;;;;;36.95;15.23;;;;;;;-2.44;100.00;103162.91;5001026;28;20045;-83
2022/12/19 06:34:36;;;;;;;30.27;18.55;;;;;;;-1.63;100.00;103259.88;5002360;28;20072;-81
2022/12/19 06:37:02;;;;;;;26.85;13.73;;;;;;;-2.55;100.00;103113.94;4996687;28;20509;-81
2022/12/19 06:39:27;;;;;;;38.83;18.08;;;;;;;-1.65;100.00;103272.56;4992089;28;20042;-81
2022/12/19 06:44:36;;;;;;;48.95;23.30;;;;;;;-1.85;100.00;103205.41;5003723;28;20057;-80
2022/12/19 06:47:04;;;;;;;32.72;15.93;;;;;;;-1.70;100.00;103328.75;4982545;28;20046;-80
2022/12/19 06:49:29;;;;;;;32.03;16.17;;;;;;;-3.93;100.00;103028.47;4998975;28;20042;-78
2022/12/19 06:51:55;;;;;;;31.40;15.07;;;;;;;-2.23;100.00;103212.94;5003376;28;20049;-78
2022/12/19 06:54:20;;;;;;;60.08;28.08;;;;;;;-1.92;100.00;103319.72;4981146;28;20169;-83
2022/12/19 06:56:46;;;;;;;36.72;19.15;;;;;;;-2.08;100.00;103340.47;5001450;28;20853;-81
2022/12/19 06:59:14;;;;;;;50.15;24.17;;;;;;;-2.00;100.00;103334.41;5009065;28;20114;-80
2022/12/19 07:02:12;;;;;;;29.70;14.27;;;;;;;-2.07;100.00;103336.22;5016078;28;20077;-80
2022/12/19 07:04:48;;;;;;;26.90;14.90;;;;;;;-2.15;100.00;103272.09;5009157;28;20050;-79
2022/12/19 07:07:14;;;;;;;36.15;16.15;;;;;;;-1.60;100.00;103353.72;5000869;28;20061;-80
2022/12/19 07:09:39;;;;;;;29.90;15.35;;;;;;;-2.34;100.00;103206.78;5006543;28;20120;-80
2022/12/19 07:12:05;;;;;;;25.65;14.38;;;;;;;-1.37;100.00;103353.38;5007222;28;20033;-80
2022/12/19 07:14:31;;;;;;;34.92;16.02;;;;;;;-2.15;100.00;103207.78;4999943;28;20488;-79
2022/12/19 07:17:00;;;;;;;26.70;14.57;;;;;;;-1.82;100.00;103375.59;5004953;28;20509;-78
2022/12/19 07:19:26;;;;;;;39.22;17.70;;;;;;;-2.74;100.00;103209.66;5003644;28;20465;-79
2022/12/19 07:21:53;;;;;;;30.67;17.73;;;;;;;-1.38;100.00;103374.75;5006908;28;20184;-79
2022/12/19 07:24:19;;;;;;;33.28;16.17;;;;;;;-1.57;100.00;103329.94;5004992;28;20036;-83
2022/12/19 07:26:44;;;;;;;46.45;19.30;;;;;;;-1.51;100.00;103328.88;5006242;28;20421;-81
2022/12/19 07:29:10;;;;;;;32.30;13.32;;;;;;;-2.60;100.00;103330.13;4997392;28;20049;-80
2022/12/19 07:31:36;;;;;;;28.30;15.18;;;;;;;-2.58;100.00;103255.00;4999290;28;20049;-78
2022/12/19 07:34:01;;;;;;;27.60;12.68;;;;;;;-1.59;100.00;103370.06;5001020;28;20560;-80
2022/12/19 07:36:27;;;;;;;31.98;15.73;;;;;;;-2.43;100.00;103213.59;5003999;28;20113;-79
2022/12/19 07:38:52;;;;;;;34.88;16.10;;;;;;;-1.74;100.00;103354.06;5002990;28;20353;-77
2022/12/19 07:41:18;;;;;;;30.33;17.08;;;;;;;-1.38;100.00;103359.28;4999876;28;20046;-79
2022/12/19 07:43:44;;;;;;;31.17;14.73;;;;;;;-2.17;100.00;103249.56;5006300;28;20042;-77
2022/12/19 07:46:10;;;;;;;26.75;16.13;;;;;;;-1.63;100.00;103343.13;5006795;28;20065;-77
2022/12/19 07:48:36;;;;;;;29.30;14.60;;;;;;;-1.64;100.00;103325.91;5003878;28;20053;-78
2022/12/19 07:51:03;;;;;;;55.08;15.40;;;;;;;-2.10;100.00;103240.78;5005980;28;20044;-78
2022/12/19 07:53:28;;;;;;;41.05;19.42;;;;;;;-2.09;100.00;103224.56;5005278;28;20140;-76
2022/12/19 07:55:54;;;;;;;33.30;16.17;;;;;;;-2.02;100.00;103242.41;5005970;28;20580;-78
2022/12/19 07:58:19;;;;;;;39.40;18.27;;;;;;;-1.33;100.00;103352.91;5004598;28;20042;-81
2022/12/19 08:00:45;;;;;;;26.50;13.60;;;;;;;-2.08;100.00;103247.88;4994403;28;20069;-74
2022/12/19 08:03:10;;;;;;;32.20;15.65;;;;;;;-1.47;100.00;103363.56;5004939;28;20042;-78
2022/12/19 08:05:35;;;;;;;28.08;14.52;;;;;;;-1.54;100.00;103372.34;5004170;28;20744;-78
2022/12/19 08:08:01;;;;;;;38.95;14.93;;;;;;;-1.25;100.00;103360.47;5004210;28;20363;-76
2022/12/19 08:10:26;;;;;;;30.45;16.63;;;;;;;-1.49;100.00;103301.59;4996303;28;20042;-78
2022/12/19 08:12:52;;;;;;;28.52;13.98;;;;;;;-1.39;100.00;103388.38;5004394;28;20110;-78
2022/12/19 08:15:17;;;;;;;39.15;16.67;;;;;;;-1.62;100.00;103369.78;5001526;28;20026;-79
2022/12/19 08:17:43;;;;;;;33.88;18.23;;;;;;;-1.98;100.00;103244.53;5007718;28;20060;-78
2022/12/19 08:20:10;;;;;;;38.95;15.63;;;;;;;-1.49;100.00;103358.25;5003903;28;20137;-79
2022/12/19 08:22:36;;;;;;;28.98;13.70;;;;;;;-2.47;100.00;103227.78;5005402;28;20073;-81
2022/12/19 08:25:02;;;;;;;34.97;17.42;;;;;;;-1.27;100.00;103410.13;5002577;28;20069;-81
2022/12/19 08:27:27;;;;;;;33.63;19.30;;;;;;;-1.33;100.00;103354.59;4997461;28;20034;-76
2022/12/19 08:29:53;;;;;;;51.03;21.30;;;;;;;-1.19;100.00;103392.88;5005190;28;20509;-77
2022/12/19 08:32:18;;;;;;;37.80;19.48;;;;;;;-1.97;100.00;103382.69;5003716;28;20372;-76
2022/12/19 08:34:44;;;;;;;33.30;16.52;;;;;;;-1.27;100.00;103394.69;5006676;28;20448;-79
2022/12/19 08:37:09;;;;;;;26.33;15.20;;;;;;;-1.14;100.00;103368.44;5002863;28;20084;-75
2022/12/19 08:39:35;;;;;;;39.53;19.13;;;;;;;-2.26;100.00;103246.97;5004597;28;20090;-76
2022/12/19 08:42:01;;;;;;;35.25;19.00;;;;;;;-1.17;100.00;103357.84;5003622;28;20052;-79
2022/12/19 08:44:26;;;;;;;49.20;23.48;;;;;;;-1.57;100.00;103310.28;4996612;28;20060;-78
2022/12/19 08:46:52;;;;;;;40.60;20.75;;;;;;;-1.00;100.00;103374.91;5000056;28;20457;-79
2022/12/19 08:49:18;;;;;;;44.58;16.88;;;;;;;-1.70;100.00;103240.34;4998663;28;20489;-78
2022/12/19 08:51:44;;;;;;;48.88;19.20;;;;;;;-0.88;100.00;103401.84;5001085;28;20045;-76
2022/12/19 08:54:11;;;;;;;48.83;19.13;;;;;;;-1.13;100.00;103372.81;5000670;28;20145;-75
2022/12/19 08:56:36;;;;;;;35.03;15.18;;;;;;;-1.94;100.00;103242.38;4999757;28;20061;-73
2022/12/19 08:59:03;;;;;;;37.55;17.63;;;;;;;-2.69;100.00;103244.41;5004468;28;20038;-73
2022/12/19 09:01:28;;;;;;;34.83;17.30;;;;;;;-2.84;100.00;103277.19;5003395;28;20073;-73
2022/12/19 09:03:58;;;;;;;36.97;16.77;;;;;;;-1.86;100.00;103360.59;5003248;28;20784;-75
2022/12/19 09:06:24;;;;;;;34.38;14.38;;;;;;;-1.39;100.00;103383.22;4984624;28;20419;-74
2022/12/19 09:08:50;;;;;;;38.85;15.73;;;;;;;-1.27;100.00;103379.22;5003456;28;20034;-73
2022/12/19 09:11:18;;;;;;;26.38;13.95;;;;;;;-1.63;100.00;103343.13;5004352;28;20046;-73
2022/12/19 09:13:44;;;;;;;33.17;14.90;;;;;;;-1.07;100.00;103372.53;5000915;28;20056;-74
2022/12/19 09:16:12;;;;;;;30.05;14.15;;;;;;;-1.18;100.00;103386.03;5003963;28;20082;-80
2022/12/19 09:18:38;;;;;;;43.13;17.48;;;;;;;-1.23;100.00;103346.97;4995061;28;20089;-77
2022/12/19 09:21:04;;;;;;;70.22;20.85;;;;;;;-1.15;100.00;103376.94;5002254;28;20107;-80
2022/12/19 09:23:30;;;;;;;37.08;20.27;;;;;;;-1.97;100.00;103213.81;4999394;28;20056;-77
2022/12/19 09:26:04;;;;;;;34.50;15.10;;;;;;;-0.94;100.00;103380.63;4980752;28;20054;-79
2022/12/19 09:28:30;;;;;;;32.80;16.75;;;;;;;-0.94;100.00;103341.97;4992343;28;20074;-78
2022/12/19 09:30:57;;;;;;;39.33;18.48;;;;;;;-1.38;100.00;103251.13;4998341;28;20594;-79
2022/12/19 09:33:23;;;;;;;35.50;17.40;;;;;;;-1.65;100.00;103217.63;4998596;28;20080;-78
2022/12/19 09:35:50;;;;;;;34.33;20.17;;;;;;;-1.29;100.00;103275.19;4982365;28;20165;-81
2022/12/19 09:38:16;;;;;;;43.13;20.23;;;;;;;-0.81;100.00;103364.66;4980023;28;20061;-84
2022/12/19 09:41:08;;;;;;;43.40;20.38;;;;;;;-1.75;100.00;103216.75;4984207;28;20141;-82
2022/12/19 09:43:43;;;;;;;42.78;19.20;;;;;;;-0.60;100.00;103357.13;4982369;28;20073;-83
2022/12/19 09:46:18;;;;;;;32.88;17.88;;;;;;;-0.59;100.00;103354.66;4988768;28;20161;-83
2022/12/19 09:48:52;;;;;;;40.30;17.77;;;;;;;-1.39;100.00;103210.66;4985695;28;20077;-82
2022/12/19 09:51:32;;;;;;;30.80;18.15;;;;;;;-1.06;100.00;103266.09;4982314;28;20125;-86
2022/12/19 09:54:05;;;;;;;42.50;17.00;;;;;;;-0.62;100.00;103322.53;4977682;28;20109;-82
2022/12/19 09:56:36;;;;;;;37.60;18.58;;;;;;;-0.56;100.00;103351.47;4978144;28;20046;-82
2022/12/19 09:59:46;;;;;;;29.63;15.55;;;;;;;-1.21;100.00;103231.19;4959210;28;20046;-78
2022/12/19 10:02:37;;;;;;;34.42;17.35;;;;;;;-0.57;100.00;103355.72;4965905;28;20133;-83
2022/12/19 10:05:24;;;;;;;38.22;19.98;;;;;;;-0.91;100.00;103339.69;4972451;28;20233;-82
2022/12/19 10:07:50;;;;;;;32.88;16.98;;;;;;;-0.96;100.00;103352.91;4994623;28;20056;-82
2022/12/19 10:10:21;;;;;;;45.70;19.48;;;;;;;-0.93;100.00;103340.31;5002212;28;20486;-82
2022/12/19 10:13:31;;;;;;;32.63;16.98;;;;;;;-1.82;100.00;103288.09;4984675;28;20058;-84
2022/12/19 10:16:08;;;;;;;31.83;18.48;;;;;;;-1.58;100.00;103262.09;4970748;28;20050;-82
2022/12/19 10:18:51;;;;;;;37.33;17.77;;;;;;;-0.93;100.00;103332.59;4982561;28;20065;-83
2022/12/19 10:21:28;;;;;;;37.45;17.95;;;;;;;-1.72;100.00;103349.97;4975854;28;20345;-83
2022/12/19 10:24:16;;;;;;;38.63;17.65;;;;;;;-0.94;100.00;103341.06;4976826;28;20042;-81
2022/12/19 10:26:45;;;;;;;36.08;17.60;;;;;;;-1.16;100.00;103245.41;5006137;28;20052;-84
2022/12/19 10:29:46;;;;;;;31.15;14.13;;;;;;;-0.95;100.00;103336.69;5009406;28;20049;-82
2022/12/19 10:32:15;;;;;;;35.42;19.42;;;;;;;-0.64;100.00;103343.91;5009479;28;20048;-81
2022/12/19 10:34:43;;;;;;;39.42;17.98;;;;;;;-1.47;100.00;103193.59;5006973;28;20505;-81
2022/12/19 10:37:30;;;;;;;42.05;22.63;;;;;;;-1.00;100.00;103295.03;4999411;28;20162;-82
2022/12/19 10:40:13;;;;;;;38.78;20.80;;;;;;;-0.53;100.00;103323.41;5002553;28;20081;-81
2022/12/19 10:43:07;;;;;;;28.73;16.23;;;;;;;-0.54;100.00;103327.66;5003385;28;20526;-84
2022/12/19 10:45:40;;;;;;;35.58;18.02;;;;;;;-0.64;100.00;103309.50;5003462;28;20057;-81
2022/12/19 10:48:13;;;;;;;41.58;16.75;;;;;;;-0.46;100.00;103325.78;5006802;28;20168;-82
2022/12/19 10:50:39;;;;;;;41.72;18.75;;;;;;;-2.21;100.00;103140.31;5005214;28;20516;-82
2022/12/19 10:53:07;;;;;;;42.60;19.38;;;;;;;-0.64;100.00;103324.97;5006731;28;20046;-82
2022/12/19 10:55:47;;;;;;;41.17;20.15;;;;;;;-2.23;100.00;103095.53;5005790;28;20065;-83
2022/12/19 10:58:27;;;;;;;45.95;20.13;;;;;;;-1.57;100.00;103322.22;4993809;28;20122;-84
2022/12/19 11:00:53;;;;;;;36.78;18.95;;;;;;;-1.52;100.00;103329.63;5005446;28;20056;-82
2022/12/19 11:03:19;;;;;;;32.78;17.05;;;;;;;-2.06;100.00;103124.53;5004498;28;20041;-81
2022/12/19 11:05:50;;;;;;;34.95;18.10;;;;;;;-1.59;100.00;103154.75;4972136;28;23507;-81
2022/12/19 11:08:19;;;;;;;26.90;15.15;;;;;;;-0.83;100.00;103278.53;5005369;28;20140;-81
2022/12/19 11:11:04;;;;;;;29.10;17.40;;;;;;;-0.68;100.00;103309.97;4995158;28;20049;-80
2022/12/19 11:13:33;;;;;;;40.60;16.65;;;;;;;-0.58;100.00;103328.13;5001162;28;20046;-81
2022/12/19 11:16:00;;;;;;;32.13;17.60;;;;;;;-0.63;100.00;103293.28;5001949;28;20053;-81
2022/12/19 11:18:46;;;;;;;33.22;18.10;;;;;;;-0.78;100.00;103256.66;5004226;28;20034;-84
2022/12/19 11:21:12;;;;;;;35.55;17.30;;;;;;;-0.44;100.00;103309.66;5004553;28;20450;-84